createdAt,value
2022-10-07T00:02:17.589Z,81.62
2022-10-07T00:07:18.946Z,82.20
2022-10-07T00:12:20.555Z,84.74
2022-10-07T00:17:22.634Z,83.79
2022-10-07T00:22:23.985Z,84.85
2022-10-07T00:27:25.303Z,82.64
2022-10-07T00:32:26.660Z,81.13
2022-10-07T00:37:28.321Z,84.35
2022-10-07T00:42:30.484Z,83.73
2022-10-07T00:47:34.692Z,82.62
2022-10-07T00:52:41.839Z,82.25
2022-10-07T00:57:44.768Z,82.42
2022-10-07T01:02:47.604Z,82.97
2022-10-07T01:07:50.463Z,83.14
2022-10-07T01:12:54.543Z,80.59
2022-10-07T01:18:14.560Z,83.71
2022-10-07T01:23:54.452Z,83.44
2022-10-07T01:29:01.505Z,82.44
2022-10-07T01:34:04.875Z,82.06
2022-10-07T01:39:13.708Z,82.19
2022-10-07T01:44:15.095Z,82.97
2022-10-07T01:49:16.427Z,82.93
2022-10-07T01:54:33.261Z,83.59
2022-10-07T02:00:02.541Z,82.79
2022-10-07T02:05:29.730Z,82.93
2022-10-07T02:10:55.694Z,83.03
2022-10-07T02:15:59.763Z,83.15
2022-10-07T02:21:07.613Z,81.78
2022-10-07T02:26:13.151Z,82.36
2022-10-07T02:31:17.602Z,82.05
2022-10-07T02:36:24.903Z,82.88
2022-10-07T02:42:00.686Z,82.97
2022-10-07T02:47:10.615Z,83.68
2022-10-07T02:52:16.277Z,84.59
2022-10-07T02:57:19.453Z,83.38
2022-10-07T03:02:44.289Z,84.76
2022-10-07T03:08:01.004Z,84.24
2022-10-07T03:13:04.829Z,83.05
2022-10-07T03:18:06.639Z,82.50
2022-10-07T03:23:07.968Z,83.31
2022-10-07T03:28:09.648Z,83.54
2022-10-07T03:33:11.051Z,85.10
2022-10-07T03:38:12.810Z,84.16
2022-10-07T03:43:14.148Z,84.81
2022-10-07T03:48:15.581Z,84.13
2022-10-07T03:53:16.965Z,84.19
2022-10-07T03:58:18.538Z,84.30
2022-10-07T04:03:19.837Z,83.99
2022-10-07T04:08:21.213Z,83.84
2022-10-07T04:13:23.215Z,83.83
2022-10-07T04:18:25.011Z,83.52
2022-10-07T04:23:26.951Z,83.41
2022-10-07T04:28:28.318Z,83.53
2022-10-07T04:33:29.965Z,83.96
2022-10-07T04:38:32.416Z,83.69
2022-10-07T04:43:34.321Z,84.22
2022-10-07T04:48:35.823Z,83.55
2022-10-07T04:53:38.708Z,83.04
2022-10-07T04:58:40.045Z,84.71
2022-10-07T05:03:41.828Z,84.58
2022-10-07T05:08:44.100Z,85.05
2022-10-07T05:13:45.489Z,86.32
2022-10-07T05:18:46.851Z,85.32
2022-10-07T05:23:48.275Z,85.96
2022-10-07T05:28:49.747Z,85.23
2022-10-07T05:33:51.540Z,83.77
2022-10-07T05:38:59.315Z,84.54
2022-10-07T05:44:01.144Z,84.71
2022-10-07T05:49:03.094Z,84.01
2022-10-07T05:54:04.396Z,84.81
2022-10-07T05:59:05.755Z,85.14
2022-10-07T06:04:07.999Z,85.71
2022-10-07T06:09:29.183Z,86.21
2022-10-07T06:14:30.564Z,84.25
2022-10-07T06:19:31.956Z,84.45
2022-10-07T06:24:33.800Z,85.06
2022-10-07T06:29:35.201Z,83.96
2022-10-07T06:34:36.524Z,86.42
2022-10-07T06:39:37.860Z,87.70
2022-10-07T06:44:39.266Z,85.45
2022-10-07T06:49:40.625Z,87.47
2022-10-07T06:54:42.513Z,85.88
2022-10-07T06:59:43.863Z,85.62
2022-10-07T07:04:45.273Z,85.64
2022-10-07T07:09:46.684Z,84.88
2022-10-07T07:14:48.133Z,84.86
2022-10-07T07:19:49.485Z,84.63
2022-10-07T07:24:50.797Z,84.84
2022-10-07T07:29:52.163Z,86.35
2022-10-07T07:34:55.633Z,85.10
2022-10-07T07:39:57.075Z,84.45
2022-10-07T07:44:59.846Z,84.30
2022-10-07T07:50:02.330Z,85.55
2022-10-07T07:55:03.947Z,84.95
2022-10-07T08:00:07.419Z,86.99
2022-10-07T08:05:09.095Z,85.95
2022-10-07T08:10:10.436Z,85.86
2022-10-07T08:15:11.825Z,86.89
2022-10-07T08:20:14.754Z,85.27
2022-10-07T08:25:16.721Z,84.78
2022-10-07T08:30:18.038Z,84.32
2022-10-07T08:35:19.341Z,83.45
2022-10-07T08:40:20.726Z,85.12
2022-10-07T08:45:33.471Z,83.57
2022-10-07T08:50:48.985Z,84.46
2022-10-07T08:55:56.366Z,82.96
2022-10-07T09:01:32.078Z,84.27
2022-10-07T09:06:38.643Z,83.50
2022-10-07T09:11:43.228Z,82.98
2022-10-07T09:16:47.198Z,82.94
2022-10-07T09:21:50.838Z,82.89
2022-10-07T09:26:56.622Z,83.41
2022-10-07T09:31:58.244Z,82.02
2022-10-07T09:37:19.499Z,82.79
2022-10-07T09:42:31.183Z,82.66
2022-10-07T09:47:40.195Z,81.63
2022-10-07T10:03:16.924Z,81.18
2022-10-07T10:08:18.397Z,81.22
2022-10-07T10:13:31.981Z,80.92
2022-10-07T10:18:39.180Z,80.46
2022-10-07T10:24:13.545Z,80.27
2022-10-07T10:29:52.540Z,80.01
2022-10-07T10:40:37.249Z,79.89
2022-10-07T10:46:16.378Z,79.30
2022-10-07T10:51:49.416Z,79.30
2022-10-07T10:57:34.011Z,79.49
2022-10-07T11:02:38.108Z,78.92
2022-10-07T11:07:46.529Z,78.94
2022-10-07T11:12:54.749Z,79.30
2022-10-07T11:18:00.797Z,79.11
2022-10-07T11:23:08.043Z,77.57
2022-10-07T11:28:19.386Z,78.67
2022-10-07T11:33:27.043Z,75.44
2022-10-07T11:38:33.584Z,77.69
2022-10-07T11:43:45.222Z,77.46
2022-10-07T11:49:10.841Z,76.57
2022-10-07T11:54:16.118Z,74.37
2022-10-07T11:59:41.972Z,76.85
2022-10-07T12:04:43.351Z,76.67
2022-10-07T12:09:55.783Z,75.70
2022-10-07T12:15:03.818Z,75.58
2022-10-07T12:20:33.268Z,74.20
2022-10-07T12:25:42.384Z,74.72
2022-10-07T12:30:52.314Z,73.58
2022-10-07T12:35:54.742Z,74.86
2022-10-07T12:41:17.726Z,74.16
2022-10-07T12:46:22.589Z,72.47
2022-10-07T12:51:39.457Z,73.80
2022-10-07T12:56:43.927Z,74.57
2022-10-07T13:02:17.273Z,72.95
2022-10-07T13:07:46.409Z,71.11
2022-10-07T13:13:10.671Z,73.35
2022-10-07T13:18:23.404Z,73.71
2022-10-07T13:23:27.679Z,74.59
2022-10-07T13:29:05.618Z,72.66
2022-10-07T13:34:17.889Z,72.93
2022-10-07T13:39:20.601Z,73.67
2022-10-07T13:44:25.547Z,73.04
2022-10-07T13:49:35.734Z,72.02
2022-10-07T13:54:37.361Z,70.55
2022-10-07T13:59:38.891Z,70.21
2022-10-07T14:04:58.096Z,72.50
2022-10-07T14:09:59.450Z,72.53
2022-10-07T14:15:03.985Z,72.40
2022-10-07T14:20:17.516Z,71.32
2022-10-07T14:25:31.441Z,71.70
2022-10-07T14:30:57.342Z,68.69
2022-10-07T14:36:11.987Z,70.57
2022-10-07T14:41:15.522Z,70.99
2022-10-07T14:46:19.614Z,72.21
2022-10-07T14:51:28.683Z,68.13
2022-10-07T14:56:33.231Z,69.48
2022-10-07T15:01:34.994Z,69.29
2022-10-07T15:06:36.535Z,69.63
2022-10-07T15:11:37.906Z,69.97
2022-10-07T15:16:39.332Z,68.46
2022-10-07T15:21:40.727Z,69.75
2022-10-07T15:26:42.279Z,66.93
2022-10-07T15:31:43.614Z,70.19
2022-10-07T15:36:48.554Z,70.47
2022-10-07T15:41:49.914Z,69.70
2022-10-07T15:46:53.955Z,69.87
2022-10-07T15:51:56.098Z,69.91
2022-10-07T15:56:58.148Z,71.22
2022-10-07T16:02:00.241Z,69.64
2022-10-07T16:07:01.804Z,69.46
2022-10-07T16:12:03.449Z,70.92
2022-10-07T16:17:04.787Z,71.29
2022-10-07T16:22:06.135Z,71.37
2022-10-07T16:27:07.499Z,70.74
2022-10-07T16:32:10.523Z,71.66
2022-10-07T16:37:12.504Z,71.79
2022-10-07T16:42:14.421Z,71.85
2022-10-07T16:47:15.729Z,72.10
2022-10-07T16:52:16.960Z,71.78
2022-10-07T16:57:18.383Z,71.74
2022-10-07T17:02:19.953Z,72.40
2022-10-07T17:07:21.260Z,71.34
2022-10-07T17:12:24.330Z,72.03
2022-10-07T17:17:25.693Z,72.45
2022-10-07T17:22:26.931Z,72.52
2022-10-07T17:27:28.264Z,72.78
2022-10-07T17:32:29.524Z,72.24
2022-10-07T17:37:30.850Z,73.01
2022-10-07T17:42:32.147Z,72.80
2022-10-07T17:47:33.583Z,72.99
2022-10-07T17:52:35.943Z,73.12
2022-10-07T17:57:37.295Z,72.94
2022-10-07T18:02:39.794Z,73.23
2022-10-07T18:07:42.462Z,74.25
2022-10-07T18:13:02.565Z,73.98
2022-10-07T18:18:04.063Z,74.11
2022-10-07T18:23:05.424Z,74.73
2022-10-07T18:28:07.326Z,74.10
2022-10-07T18:33:09.773Z,74.46
2022-10-07T18:38:11.128Z,74.08
2022-10-07T18:43:12.364Z,74.50
2022-10-07T18:48:13.692Z,74.31
2022-10-07T18:53:14.995Z,74.97
2022-10-07T18:58:16.400Z,75.13
2022-10-07T19:03:17.637Z,74.84
2022-10-07T19:08:19.384Z,74.66
2022-10-07T19:13:39.441Z,75.37
2022-10-07T19:18:42.111Z,75.57
2022-10-07T19:23:43.899Z,75.56
2022-10-07T19:28:46.512Z,76.65
2022-10-07T19:33:49.992Z,75.77
2022-10-07T19:38:52.364Z,76.19
2022-10-07T19:43:54.259Z,75.87
2022-10-07T19:48:58.179Z,75.96
2022-10-07T19:54:01.745Z,76.48
2022-10-07T19:59:08.856Z,75.94
2022-10-07T20:04:15.849Z,76.91
2022-10-07T20:09:18.408Z,77.20
2022-10-07T20:14:19.722Z,76.37
2022-10-07T20:19:21.126Z,76.43
2022-10-07T20:24:22.397Z,76.07
2022-10-07T20:29:25.533Z,76.76
2022-10-07T20:34:26.976Z,76.67
2022-10-07T20:39:46.833Z,78.07
2022-10-07T20:44:49.521Z,77.09
2022-10-07T20:49:51.603Z,76.83
2022-10-07T20:54:53.637Z,76.98
2022-10-07T20:59:55.493Z,78.56
2022-10-07T21:04:59.019Z,79.80
2022-10-07T21:10:00.350Z,78.18
2022-10-07T21:15:03.314Z,78.11
2022-10-07T21:20:06.093Z,79.37
2022-10-07T21:25:11.483Z,78.35
2022-10-07T21:30:13.015Z,78.65
2022-10-07T21:35:14.416Z,79.19
2022-10-07T21:40:15.702Z,78.72
2022-10-07T21:45:17.085Z,79.01
2022-10-07T21:50:18.318Z,78.65
2022-10-07T21:55:19.665Z,79.03
2022-10-07T22:00:21.482Z,79.53
2022-10-07T22:05:22.878Z,79.48
2022-10-07T22:10:24.105Z,78.87
2022-10-07T22:15:25.574Z,79.95
2022-10-07T22:20:27.477Z,79.49
2022-10-07T22:25:29.515Z,79.12
2022-10-07T22:30:30.881Z,79.10
2022-10-07T22:35:34.790Z,80.51
2022-10-07T22:40:38.203Z,80.13
2022-10-07T22:45:39.559Z,80.32
2022-10-07T22:50:40.857Z,80.96
2022-10-07T22:55:42.335Z,79.57
2022-10-07T23:00:43.562Z,80.37
2022-10-07T23:05:44.899Z,81.24
2022-10-07T23:10:55.811Z,80.88
2022-10-07T23:16:02.711Z,80.02
2022-10-07T23:21:13.027Z,80.56
2022-10-07T23:26:27.267Z,81.07
2022-10-07T23:31:31.486Z,81.23
2022-10-07T23:36:34.644Z,80.22
2022-10-07T23:41:36.354Z,81.76
2022-10-07T23:46:39.524Z,81.18
2022-10-07T23:51:40.939Z,81.39
2022-10-07T23:56:42.291Z,81.21
